sensor_id;sensor_type;location;lat;lon;timestamp;P1;durP1;ratioP1;P2;durP2;ratioP2
28431;SDS011;15664;51.302;7.744;2023-04-06T00:01:02;49.60;;;35.38;;
28431;SDS011;15664;51.302;7.744;2023-04-06T00:03:27;35.77;;;30.13;;
28431;SDS011;15664;51.302;7.744;2023-04-06T00:05:53;38.33;;;31.77;;
28431;SDS011;15664;51.302;7.744;2023-04-06T00:08:19;42.45;;;34.08;;
28431;SDS011;15664;51.302;7.744;2023-04-06T00:10:46;34.60;;;30.35;;
28431;SDS011;15664;51.302;7.744;2023-04-06T00:13:12;40.57;;;32.90;;
28431;SDS011;15664;51.302;7.744;2023-04-06T00:15:37;31.00;;;27.93;;
28431;SDS011;15664;51.302;7.744;2023-04-06T00:18:03;49.13;;;36.57;;
28431;SDS011;15664;51.302;7.744;2023-04-06T00:20:29;29.65;;;26.52;;
28431;SDS011;15664;51.302;7.744;2023-04-06T00:22:54;35.92;;;30.00;;
28431;SDS011;15664;51.302;7.744;2023-04-06T00:25:20;27.25;;;24.40;;
28431;SDS011;15664;51.302;7.744;2023-04-06T00:27:45;24.67;;;22.13;;
28431;SDS011;15664;51.302;7.744;2023-04-06T00:30:11;29.50;;;23.10;;
28431;SDS011;15664;51.302;7.744;2023-04-06T00:32:36;20.73;;;18.50;;
28431;SDS011;15664;51.302;7.744;2023-04-06T00:35:05;20.30;;;18.20;;
28431;SDS011;15664;51.302;7.744;2023-04-06T00:37:31;18.05;;;16.02;;
28431;SDS011;15664;51.302;7.744;2023-04-06T00:39:57;16.63;;;14.87;;
28431;SDS011;15664;51.302;7.744;2023-04-06T00:42:23;14.88;;;12.30;;
28431;SDS011;15664;51.302;7.744;2023-04-06T00:44:52;20.92;;;17.55;;
28431;SDS011;15664;51.302;7.744;2023-04-06T00:47:18;18.90;;;14.60;;
28431;SDS011;15664;51.302;7.744;2023-04-06T00:49:44;13.68;;;11.18;;
28431;SDS011;15664;51.302;7.744;2023-04-06T00:52:10;13.10;;;10.97;;
28431;SDS011;15664;51.302;7.744;2023-04-06T00:54:35;11.35;;;8.80;;
28431;SDS011;15664;51.302;7.744;2023-04-06T00:57:02;10.67;;;7.33;;
28431;SDS011;15664;51.302;7.744;2023-04-06T00:59:29;12.95;;;6.93;;
28431;SDS011;15664;51.302;7.744;2023-04-06T01:01:55;16.40;;;8.32;;
28431;SDS011;15664;51.302;7.744;2023-04-06T01:04:33;12.35;;;7.38;;
28431;SDS011;15664;51.302;7.744;2023-04-06T01:07:01;11.60;;;7.32;;
28431;SDS011;15664;51.302;7.744;2023-04-06T01:09:34;11.53;;;6.30;;
28431;SDS011;15664;51.302;7.744;2023-04-06T01:12:05;13.75;;;6.53;;
28431;SDS011;15664;51.302;7.744;2023-04-06T01:14:33;10.05;;;7.28;;
28431;SDS011;15664;51.302;7.744;2023-04-06T01:16:59;13.52;;;6.75;;
28431;SDS011;15664;51.302;7.744;2023-04-06T01:19:29;12.38;;;8.50;;
28431;SDS011;15664;51.302;7.744;2023-04-06T01:21:55;12.80;;;6.87;;
28431;SDS011;15664;51.302;7.744;2023-04-06T01:24:30;9.57;;;4.95;;
28431;SDS011;15664;51.302;7.744;2023-04-06T01:27:04;10.65;;;5.97;;
28431;SDS011;15664;51.302;7.744;2023-04-06T01:29:53;11.30;;;6.65;;
28431;SDS011;15664;51.302;7.744;2023-04-06T01:32:32;13.30;;;8.87;;
28431;SDS011;15664;51.302;7.744;2023-04-06T01:34:58;11.00;;;7.63;;
28431;SDS011;15664;51.302;7.744;2023-04-06T01:37:23;13.80;;;9.90;;
28431;SDS011;15664;51.302;7.744;2023-04-06T01:39:53;13.95;;;11.85;;
28431;SDS011;15664;51.302;7.744;2023-04-06T01:42:29;12.13;;;8.77;;
28431;SDS011;15664;51.302;7.744;2023-04-06T01:44:55;11.73;;;8.85;;
28431;SDS011;15664;51.302;7.744;2023-04-06T01:47:22;10.83;;;6.63;;
28431;SDS011;15664;51.302;7.744;2023-04-06T01:49:48;11.70;;;5.13;;
28431;SDS011;15664;51.302;7.744;2023-04-06T01:52:14;11.37;;;4.90;;
28431;SDS011;15664;51.302;7.744;2023-04-06T01:54:47;9.43;;;4.38;;
28431;SDS011;15664;51.302;7.744;2023-04-06T01:57:41;8.60;;;4.47;;
28431;SDS011;15664;51.302;7.744;2023-04-06T02:00:14;9.52;;;4.05;;
28431;SDS011;15664;51.302;7.744;2023-04-06T02:02:47;10.57;;;4.88;;
28431;SDS011;15664;51.302;7.744;2023-04-06T02:05:19;9.03;;;4.53;;
28431;SDS011;15664;51.302;7.744;2023-04-06T02:07:45;10.43;;;4.22;;
28431;SDS011;15664;51.302;7.744;2023-04-06T02:10:14;8.52;;;4.43;;
28431;SDS011;15664;51.302;7.744;2023-04-06T02:12:41;11.25;;;7.75;;
28431;SDS011;15664;51.302;7.744;2023-04-06T02:15:10;10.75;;;4.45;;
28431;SDS011;15664;51.302;7.744;2023-04-06T02:17:38;9.30;;;5.03;;
28431;SDS011;15664;51.302;7.744;2023-04-06T02:20:05;9.40;;;5.22;;
28431;SDS011;15664;51.302;7.744;2023-04-06T02:22:30;9.55;;;4.55;;
28431;SDS011;15664;51.302;7.744;2023-04-06T02:24:56;11.67;;;6.17;;
28431;SDS011;15664;51.302;7.744;2023-04-06T02:27:21;11.90;;;5.47;;
28431;SDS011;15664;51.302;7.744;2023-04-06T02:29:47;10.93;;;6.47;;
28431;SDS011;15664;51.302;7.744;2023-04-06T02:32:16;11.43;;;7.22;;
28431;SDS011;15664;51.302;7.744;2023-04-06T02:34:41;13.07;;;9.03;;
28431;SDS011;15664;51.302;7.744;2023-04-06T02:37:07;10.07;;;5.73;;
28431;SDS011;15664;51.302;7.744;2023-04-06T02:39:33;17.15;;;15.35;;
28431;SDS011;15664;51.302;7.744;2023-04-06T02:42:00;10.38;;;6.78;;
28431;SDS011;15664;51.302;7.744;2023-04-06T02:44:25;12.37;;;9.87;;
28431;SDS011;15664;51.302;7.744;2023-04-06T02:46:51;11.90;;;6.07;;
28431;SDS011;15664;51.302;7.744;2023-04-06T02:49:16;8.57;;;4.57;;
28431;SDS011;15664;51.302;7.744;2023-04-06T02:51:43;11.60;;;4.85;;
28431;SDS011;15664;51.302;7.744;2023-04-06T02:54:19;10.48;;;4.72;;
28431;SDS011;15664;51.302;7.744;2023-04-06T02:56:45;12.32;;;5.53;;
28431;SDS011;15664;51.302;7.744;2023-04-06T02:59:11;11.23;;;4.60;;
28431;SDS011;15664;51.302;7.744;2023-04-06T03:01:39;14.25;;;5.70;;
28431;SDS011;15664;51.302;7.744;2023-04-06T03:04:05;11.40;;;6.37;;
28431;SDS011;15664;51.302;7.744;2023-04-06T03:06:30;10.73;;;6.32;;
28431;SDS011;15664;51.302;7.744;2023-04-06T03:09:02;14.70;;;8.23;;
28431;SDS011;15664;51.302;7.744;2023-04-06T03:11:28;10.60;;;6.63;;
28431;SDS011;15664;51.302;7.744;2023-04-06T03:13:55;11.97;;;6.67;;
28431;SDS011;15664;51.302;7.744;2023-04-06T03:16:20;11.10;;;5.50;;
28431;SDS011;15664;51.302;7.744;2023-04-06T03:18:46;13.87;;;6.80;;
28431;SDS011;15664;51.302;7.744;2023-04-06T03:21:15;10.77;;;6.80;;
28431;SDS011;15664;51.302;7.744;2023-04-06T03:23:49;12.55;;;7.45;;
28431;SDS011;15664;51.302;7.744;2023-04-06T03:26:16;15.85;;;7.40;;
28431;SDS011;15664;51.302;7.744;2023-04-06T03:28:43;12.30;;;7.20;;
28431;SDS011;15664;51.302;7.744;2023-04-06T03:31:08;10.80;;;7.50;;
28431;SDS011;15664;51.302;7.744;2023-04-06T03:33:40;11.80;;;8.45;;
28431;SDS011;15664;51.302;7.744;2023-04-06T03:36:08;11.03;;;6.67;;
28431;SDS011;15664;51.302;7.744;2023-04-06T03:38:37;8.85;;;5.35;;
28431;SDS011;15664;51.302;7.744;2023-04-06T03:41:08;7.53;;;5.13;;
28431;SDS011;15664;51.302;7.744;2023-04-06T03:43:34;10.83;;;6.03;;
28431;SDS011;15664;51.302;7.744;2023-04-06T03:45:59;10.75;;;5.97;;
28431;SDS011;15664;51.302;7.744;2023-04-06T03:48:25;11.90;;;7.73;;
28431;SDS011;15664;51.302;7.744;2023-04-06T03:50:51;14.05;;;9.73;;
28431;SDS011;15664;51.302;7.744;2023-04-06T03:53:17;20.20;;;17.77;;
28431;SDS011;15664;51.302;7.744;2023-04-06T03:55:42;139.93;;;75.63;;
28431;SDS011;15664;51.302;7.744;2023-04-06T03:58:07;65.00;;;42.08;;
28431;SDS011;15664;51.302;7.744;2023-04-06T04:00:33;64.63;;;42.60;;
28431;SDS011;15664;51.302;7.744;2023-04-06T04:02:58;61.67;;;42.03;;
28431;SDS011;15664;51.302;7.744;2023-04-06T04:05:24;50.58;;;37.83;;
28431;SDS011;15664;51.302;7.744;2023-04-06T04:07:51;52.33;;;37.20;;
28431;SDS011;15664;51.302;7.744;2023-04-06T04:10:19;50.75;;;37.38;;
28431;SDS011;15664;51.302;7.744;2023-04-06T04:12:45;53.47;;;37.78;;
28431;SDS011;15664;51.302;7.744;2023-04-06T04:15:10;48.67;;;36.27;;
28431;SDS011;15664;51.302;7.744;2023-04-06T04:17:36;38.67;;;31.93;;
28431;SDS011;15664;51.302;7.744;2023-04-06T04:20:01;35.57;;;30.67;;
28431;SDS011;15664;51.302;7.744;2023-04-06T04:22:27;38.28;;;30.52;;
28431;SDS011;15664;51.302;7.744;2023-04-06T04:24:53;43.22;;;33.10;;
28431;SDS011;15664;51.302;7.744;2023-04-06T04:27:19;35.13;;;30.60;;
28431;SDS011;15664;51.302;7.744;2023-04-06T04:29:49;32.30;;;28.83;;
28431;SDS011;15664;51.302;7.744;2023-04-06T04:32:15;33.38;;;27.48;;
28431;SDS011;15664;51.302;7.744;2023-04-06T04:34:43;43.20;;;34.53;;
28431;SDS011;15664;51.302;7.744;2023-04-06T04:37:16;43.10;;;33.67;;
28431;SDS011;15664;51.302;7.744;2023-04-06T04:39:47;43.03;;;33.63;;
28431;SDS011;15664;51.302;7.744;2023-04-06T04:42:13;38.47;;;32.00;;
28431;SDS011;15664;51.302;7.744;2023-04-06T04:44:45;48.03;;;35.03;;
28431;SDS011;15664;51.302;7.744;2023-04-06T04:47:11;37.95;;;32.53;;
28431;SDS011;15664;51.302;7.744;2023-04-06T04:49:42;32.42;;;28.85;;
28431;SDS011;15664;51.302;7.744;2023-04-06T04:52:09;28.83;;;25.97;;
28431;SDS011;15664;51.302;7.744;2023-04-06T04:54:55;28.88;;;25.50;;
28431;SDS011;15664;51.302;7.744;2023-04-06T04:57:25;24.02;;;21.60;;
28431;SDS011;15664;51.302;7.744;2023-04-06T04:59:51;25.67;;;23.13;;
28431;SDS011;15664;51.302;7.744;2023-04-06T05:02:17;24.17;;;21.77;;
28431;SDS011;15664;51.302;7.744;2023-04-06T05:04:52;24.13;;;21.80;;
28431;SDS011;15664;51.302;7.744;2023-04-06T05:07:22;19.65;;;17.75;;
28431;SDS011;15664;51.302;7.744;2023-04-06T05:09:49;18.73;;;15.45;;
28431;SDS011;15664;51.302;7.744;2023-04-06T05:12:17;16.20;;;14.45;;
28431;SDS011;15664;51.302;7.744;2023-04-06T05:14:53;13.83;;;12.37;;
28431;SDS011;15664;51.302;7.744;2023-04-06T05:17:21;13.40;;;11.70;;
28431;SDS011;15664;51.302;7.744;2023-04-06T05:19:48;13.15;;;11.80;;
28431;SDS011;15664;51.302;7.744;2023-04-06T05:22:20;13.93;;;10.82;;
28431;SDS011;15664;51.302;7.744;2023-04-06T05:24:53;10.45;;;7.53;;
28431;SDS011;15664;51.302;7.744;2023-04-06T05:27:19;12.23;;;6.17;;
28431;SDS011;15664;51.302;7.744;2023-04-06T05:29:46;11.55;;;5.90;;
28431;SDS011;15664;51.302;7.744;2023-04-06T05:32:13;24.33;;;13.93;;
28431;SDS011;15664;51.302;7.744;2023-04-06T05:34:39;15.57;;;13.10;;
28431;SDS011;15664;51.302;7.744;2023-04-06T05:37:05;17.25;;;14.70;;
28431;SDS011;15664;51.302;7.744;2023-04-06T05:39:31;14.45;;;12.05;;
28431;SDS011;15664;51.302;7.744;2023-04-06T05:41:58;11.43;;;8.80;;
28431;SDS011;15664;51.302;7.744;2023-04-06T05:44:33;11.15;;;7.28;;
28431;SDS011;15664;51.302;7.744;2023-04-06T05:47:06;13.77;;;10.30;;
28431;SDS011;15664;51.302;7.744;2023-04-06T05:49:33;12.32;;;7.78;;
28431;SDS011;15664;51.302;7.744;2023-04-06T05:52:00;10.88;;;5.95;;
28431;SDS011;15664;51.302;7.744;2023-04-06T05:54:27;14.53;;;6.43;;
28431;SDS011;15664;51.302;7.744;2023-04-06T05:56:57;9.82;;;4.65;;
28431;SDS011;15664;51.302;7.744;2023-04-06T05:59:23;12.37;;;4.77;;
28431;SDS011;15664;51.302;7.744;2023-04-06T06:01:49;9.77;;;4.85;;
28431;SDS011;15664;51.302;7.744;2023-04-06T06:04:15;9.13;;;4.03;;
28431;SDS011;15664;51.302;7.744;2023-04-06T06:06:42;7.97;;;3.50;;
28431;SDS011;15664;51.302;7.744;2023-04-06T06:09:21;9.53;;;3.93;;
28431;SDS011;15664;51.302;7.744;2023-04-06T06:12:04;8.57;;;4.32;;
28431;SDS011;15664;51.302;7.744;2023-04-06T06:14:30;8.70;;;3.95;;
28431;SDS011;15664;51.302;7.744;2023-04-06T06:16:56;8.38;;;3.75;;
28431;SDS011;15664;51.302;7.744;2023-04-06T06:19:22;9.13;;;3.75;;
28431;SDS011;15664;51.302;7.744;2023-04-06T06:21:49;8.52;;;3.95;;
28431;SDS011;15664;51.302;7.744;2023-04-06T06:24:15;8.17;;;3.00;;
28431;SDS011;15664;51.302;7.744;2023-04-06T06:26:41;9.80;;;4.05;;
28431;SDS011;15664;51.302;7.744;2023-04-06T06:29:07;7.73;;;3.20;;
28431;SDS011;15664;51.302;7.744;2023-04-06T06:31:36;8.98;;;3.45;;
28431;SDS011;15664;51.302;7.744;2023-04-06T06:34:02;9.40;;;4.43;;
28431;SDS011;15664;51.302;7.744;2023-04-06T06:36:29;9.13;;;3.92;;
28431;SDS011;15664;51.302;7.744;2023-04-06T06:38:56;9.75;;;4.03;;
28431;SDS011;15664;51.302;7.744;2023-04-06T06:41:22;9.27;;;3.70;;
28431;SDS011;15664;51.302;7.744;2023-04-06T06:43:48;11.45;;;3.90;;
28431;SDS011;15664;51.302;7.744;2023-04-06T06:46:16;7.18;;;2.83;;
28431;SDS011;15664;51.302;7.744;2023-04-06T06:48:42;10.50;;;4.13;;
28431;SDS011;15664;51.302;7.744;2023-04-06T06:51:08;10.13;;;4.13;;
28431;SDS011;15664;51.302;7.744;2023-04-06T06:53:34;9.75;;;4.05;;
28431;SDS011;15664;51.302;7.744;2023-04-06T06:56:00;10.90;;;4.55;;
28431;SDS011;15664;51.302;7.744;2023-04-06T06:58:28;8.63;;;4.03;;
28431;SDS011;15664;51.302;7.744;2023-04-06T07:00:57;9.07;;;4.03;;
28431;SDS011;15664;51.302;7.744;2023-04-06T07:03:24;11.57;;;4.07;;
28431;SDS011;15664;51.302;7.744;2023-04-06T07:05:50;11.20;;;3.88;;
28431;SDS011;15664;51.302;7.744;2023-04-06T07:08:20;9.80;;;3.92;;
28431;SDS011;15664;51.302;7.744;2023-04-06T07:10:46;9.80;;;3.83;;
28431;SDS011;15664;51.302;7.744;2023-04-06T07:13:13;8.48;;;3.55;;
28431;SDS011;15664;51.302;7.744;2023-04-06T07:15:44;9.52;;;4.28;;
28431;SDS011;15664;51.302;7.744;2023-04-06T07:18:11;9.70;;;4.28;;
28431;SDS011;15664;51.302;7.744;2023-04-06T07:20:37;11.65;;;4.28;;
28431;SDS011;15664;51.302;7.744;2023-04-06T07:23:02;11.43;;;3.90;;
28431;SDS011;15664;51.302;7.744;2023-04-06T07:25:29;8.93;;;3.55;;
28431;SDS011;15664;51.302;7.744;2023-04-06T07:27:55;11.02;;;4.70;;
28431;SDS011;15664;51.302;7.744;2023-04-06T07:30:21;11.47;;;4.77;;
28431;SDS011;15664;51.302;7.744;2023-04-06T07:32:47;10.45;;;4.72;;
28431;SDS011;15664;51.302;7.744;2023-04-06T07:35:14;10.57;;;4.20;;
28431;SDS011;15664;51.302;7.744;2023-04-06T07:37:40;10.63;;;4.37;;
28431;SDS011;15664;51.302;7.744;2023-04-06T07:40:07;10.00;;;4.32;;
28431;SDS011;15664;51.302;7.744;2023-04-06T07:42:33;10.85;;;4.50;;
28431;SDS011;15664;51.302;7.744;2023-04-06T07:44:59;12.80;;;4.47;;
28431;SDS011;15664;51.302;7.744;2023-04-06T07:47:24;9.77;;;4.47;;
28431;SDS011;15664;51.302;7.744;2023-04-06T07:49:50;9.77;;;4.15;;
28431;SDS011;15664;51.302;7.744;2023-04-06T07:52:16;14.57;;;4.70;;
28431;SDS011;15664;51.302;7.744;2023-04-06T07:54:42;11.10;;;4.60;;
28431;SDS011;15664;51.302;7.744;2023-04-06T07:57:07;17.90;;;5.30;;
28431;SDS011;15664;51.302;7.744;2023-04-06T07:59:33;11.05;;;4.55;;
28431;SDS011;15664;51.302;7.744;2023-04-06T08:01:58;11.00;;;4.35;;
28431;SDS011;15664;51.302;7.744;2023-04-06T08:04:24;11.30;;;5.17;;
28431;SDS011;15664;51.302;7.744;2023-04-06T08:06:50;10.10;;;4.00;;
28431;SDS011;15664;51.302;7.744;2023-04-06T08:09:15;13.70;;;4.73;;
28431;SDS011;15664;51.302;7.744;2023-04-06T08:11:41;9.83;;;4.17;;
28431;SDS011;15664;51.302;7.744;2023-04-06T08:14:06;11.70;;;4.70;;
28431;SDS011;15664;51.302;7.744;2023-04-06T08:16:31;10.90;;;5.00;;
28431;SDS011;15664;51.302;7.744;2023-04-06T08:18:57;13.48;;;5.15;;
28431;SDS011;15664;51.302;7.744;2023-04-06T08:21:22;11.63;;;4.60;;
28431;SDS011;15664;51.302;7.744;2023-04-06T08:23:48;11.47;;;5.50;;
28431;SDS011;15664;51.302;7.744;2023-04-06T08:26:13;11.32;;;4.72;;
28431;SDS011;15664;51.302;7.744;2023-04-06T08:28:39;11.90;;;4.83;;
28431;SDS011;15664;51.302;7.744;2023-04-06T08:31:05;10.45;;;4.53;;
28431;SDS011;15664;51.302;7.744;2023-04-06T08:33:31;11.33;;;4.77;;
28431;SDS011;15664;51.302;7.744;2023-04-06T08:36:06;10.20;;;4.78;;
28431;SDS011;15664;51.302;7.744;2023-04-06T08:38:32;12.52;;;4.90;;
28431;SDS011;15664;51.302;7.744;2023-04-06T08:40:58;12.00;;;4.80;;
28431;SDS011;15664;51.302;7.744;2023-04-06T08:43:23;12.05;;;4.88;;
28431;SDS011;15664;51.302;7.744;2023-04-06T08:45:52;11.63;;;4.60;;
28431;SDS011;15664;51.302;7.744;2023-04-06T08:48:17;12.83;;;5.07;;
28431;SDS011;15664;51.302;7.744;2023-04-06T08:50:43;10.40;;;4.45;;
28431;SDS011;15664;51.302;7.744;2023-04-06T08:53:10;11.13;;;5.30;;
28431;SDS011;15664;51.302;7.744;2023-04-06T08:55:36;12.57;;;5.63;;
28431;SDS011;15664;51.302;7.744;2023-04-06T08:58:03;13.15;;;4.53;;
28431;SDS011;15664;51.302;7.744;2023-04-06T09:00:31;14.80;;;5.75;;
28431;SDS011;15664;51.302;7.744;2023-04-06T09:02:58;12.48;;;5.20;;
28431;SDS011;15664;51.302;7.744;2023-04-06T09:05:23;16.10;;;5.30;;
28431;SDS011;15664;51.302;7.744;2023-04-06T09:07:51;12.52;;;4.85;;
28431;SDS011;15664;51.302;7.744;2023-04-06T09:10:16;12.57;;;5.40;;
28431;SDS011;15664;51.302;7.744;2023-04-06T09:12:42;15.23;;;4.93;;
28431;SDS011;15664;51.302;7.744;2023-04-06T09:15:17;13.80;;;6.03;;
28431;SDS011;15664;51.302;7.744;2023-04-06T09:17:44;14.27;;;5.80;;
28431;SDS011;15664;51.302;7.744;2023-04-06T09:20:11;11.97;;;5.17;;
28431;SDS011;15664;51.302;7.744;2023-04-06T09:22:37;14.57;;;5.78;;
28431;SDS011;15664;51.302;7.744;2023-04-06T09:25:04;13.52;;;5.57;;
28431;SDS011;15664;51.302;7.744;2023-04-06T09:27:31;13.35;;;5.75;;
28431;SDS011;15664;51.302;7.744;2023-04-06T09:30:07;14.30;;;6.00;;
28431;SDS011;15664;51.302;7.744;2023-04-06T09:32:47;16.08;;;6.38;;
28431;SDS011;15664;51.302;7.744;2023-04-06T09:35:14;15.55;;;5.55;;
28431;SDS011;15664;51.302;7.744;2023-04-06T09:37:41;14.07;;;5.72;;
28431;SDS011;15664;51.302;7.744;2023-04-06T09:40:07;15.43;;;6.00;;
28431;SDS011;15664;51.302;7.744;2023-04-06T09:42:34;14.13;;;5.63;;
28431;SDS011;15664;51.302;7.744;2023-04-06T09:45:00;12.75;;;5.38;;
28431;SDS011;15664;51.302;7.744;2023-04-06T09:47:27;16.98;;;6.05;;
28431;SDS011;15664;51.302;7.744;2023-04-06T09:49:57;14.57;;;5.78;;
28431;SDS011;15664;51.302;7.744;2023-04-06T09:52:27;15.53;;;6.77;;
28431;SDS011;15664;51.302;7.744;2023-04-06T09:54:59;15.23;;;6.75;;
28431;SDS011;15664;51.302;7.744;2023-04-06T09:57:29;16.10;;;6.30;;
28431;SDS011;15664;51.302;7.744;2023-04-06T10:00:04;18.25;;;6.50;;
28431;SDS011;15664;51.302;7.744;2023-04-06T10:02:41;11.88;;;4.50;;
28431;SDS011;15664;51.302;7.744;2023-04-06T10:08:08;17.65;;;6.40;;
28431;SDS011;15664;51.302;7.744;2023-04-06T10:10:34;17.25;;;6.53;;
28431;SDS011;15664;51.302;7.744;2023-04-06T10:13:00;12.82;;;4.90;;
28431;SDS011;15664;51.302;7.744;2023-04-06T10:15:27;10.47;;;4.43;;
28431;SDS011;15664;51.302;7.744;2023-04-06T10:17:54;15.48;;;6.05;;
28431;SDS011;15664;51.302;7.744;2023-04-06T10:22:56;17.02;;;6.70;;
28431;SDS011;15664;51.302;7.744;2023-04-06T10:25:28;16.75;;;6.70;;
28431;SDS011;15664;51.302;7.744;2023-04-06T10:28:07;14.50;;;5.67;;
28431;SDS011;15664;51.302;7.744;2023-04-06T10:30:34;17.60;;;6.53;;
28431;SDS011;15664;51.302;7.744;2023-04-06T10:33:13;14.90;;;5.65;;
28431;SDS011;15664;51.302;7.744;2023-04-06T10:35:43;13.20;;;5.30;;
28431;SDS011;15664;51.302;7.744;2023-04-06T10:38:08;17.52;;;5.93;;
28431;SDS011;15664;51.302;7.744;2023-04-06T10:40:35;18.73;;;7.13;;
28431;SDS011;15664;51.302;7.744;2023-04-06T10:43:10;19.20;;;6.28;;
28431;SDS011;15664;51.302;7.744;2023-04-06T10:45:36;18.08;;;6.60;;
28431;SDS011;15664;51.302;7.744;2023-04-06T10:48:13;17.25;;;5.93;;
28431;SDS011;15664;51.302;7.744;2023-04-06T10:50:49;9.83;;;4.50;;
28431;SDS011;15664;51.302;7.744;2023-04-06T10:53:22;23.13;;;7.53;;
28431;SDS011;15664;51.302;7.744;2023-04-06T10:55:49;15.77;;;5.70;;
28431;SDS011;15664;51.302;7.744;2023-04-06T10:58:15;16.33;;;6.35;;
28431;SDS011;15664;51.302;7.744;2023-04-06T11:00:47;14.80;;;6.07;;
28431;SDS011;15664;51.302;7.744;2023-04-06T11:03:14;18.40;;;7.65;;
28431;SDS011;15664;51.302;7.744;2023-04-06T11:05:44;17.93;;;5.93;;
28431;SDS011;15664;51.302;7.744;2023-04-06T11:08:21;13.93;;;6.25;;
28431;SDS011;15664;51.302;7.744;2023-04-06T11:11:03;16.45;;;6.35;;
28431;SDS011;15664;51.302;7.744;2023-04-06T11:13:46;17.45;;;6.28;;
28431;SDS011;15664;51.302;7.744;2023-04-06T11:16:23;16.08;;;6.10;;
28431;SDS011;15664;51.302;7.744;2023-04-06T11:18:59;18.07;;;6.47;;
28431;SDS011;15664;51.302;7.744;2023-04-06T11:21:33;15.05;;;6.30;;
28431;SDS011;15664;51.302;7.744;2023-04-06T11:24:04;14.45;;;5.97;;
28431;SDS011;15664;51.302;7.744;2023-04-06T11:26:30;9.90;;;4.13;;
28431;SDS011;15664;51.302;7.744;2023-04-06T11:28:55;16.07;;;5.80;;
28431;SDS011;15664;51.302;7.744;2023-04-06T11:31:24;14.30;;;5.67;;
28431;SDS011;15664;51.302;7.744;2023-04-06T11:33:55;15.52;;;5.80;;
28431;SDS011;15664;51.302;7.744;2023-04-06T11:36:22;17.10;;;5.55;;
28431;SDS011;15664;51.302;7.744;2023-04-06T11:38:47;11.90;;;4.70;;
28431;SDS011;15664;51.302;7.744;2023-04-06T11:41:12;13.57;;;4.57;;
28431;SDS011;15664;51.302;7.744;2023-04-06T11:43:38;14.07;;;5.30;;
28431;SDS011;15664;51.302;7.744;2023-04-06T11:46:03;12.47;;;5.17;;
28431;SDS011;15664;51.302;7.744;2023-04-06T11:48:30;13.48;;;4.60;;
28431;SDS011;15664;51.302;7.744;2023-04-06T11:50:56;18.75;;;5.47;;
28431;SDS011;15664;51.302;7.744;2023-04-06T11:53:23;10.77;;;4.88;;
28431;SDS011;15664;51.302;7.744;2023-04-06T11:55:49;12.82;;;5.07;;
28431;SDS011;15664;51.302;7.744;2023-04-06T11:58:15;12.70;;;4.70;;
28431;SDS011;15664;51.302;7.744;2023-04-06T12:00:41;17.23;;;5.73;;
28431;SDS011;15664;51.302;7.744;2023-04-06T12:03:10;10.80;;;3.63;;
28431;SDS011;15664;51.302;7.744;2023-04-06T12:05:37;14.52;;;4.93;;
28431;SDS011;15664;51.302;7.744;2023-04-06T12:08:03;15.15;;;4.97;;
28431;SDS011;15664;51.302;7.744;2023-04-06T12:10:29;13.27;;;4.93;;
28431;SDS011;15664;51.302;7.744;2023-04-06T12:12:55;14.17;;;5.63;;
28431;SDS011;15664;51.302;7.744;2023-04-06T12:15:21;18.33;;;6.03;;
28431;SDS011;15664;51.302;7.744;2023-04-06T12:17:47;16.97;;;5.67;;
28431;SDS011;15664;51.302;7.744;2023-04-06T12:20:13;14.23;;;5.10;;
28431;SDS011;15664;51.302;7.744;2023-04-06T12:22:38;14.27;;;5.67;;
28431;SDS011;15664;51.302;7.744;2023-04-06T12:25:05;14.75;;;5.20;;
28431;SDS011;15664;51.302;7.744;2023-04-06T12:27:32;14.43;;;5.75;;
28431;SDS011;15664;51.302;7.744;2023-04-06T12:29:58;16.10;;;5.88;;
28431;SDS011;15664;51.302;7.744;2023-04-06T12:32:24;13.23;;;5.30;;
28431;SDS011;15664;51.302;7.744;2023-04-06T12:34:50;14.70;;;5.72;;
28431;SDS011;15664;51.302;7.744;2023-04-06T12:37:17;17.80;;;5.77;;
28431;SDS011;15664;51.302;7.744;2023-04-06T12:39:42;19.07;;;5.90;;
28431;SDS011;15664;51.302;7.744;2023-04-06T12:42:09;13.20;;;5.18;;
28431;SDS011;15664;51.302;7.744;2023-04-06T12:44:35;14.82;;;5.40;;
28431;SDS011;15664;51.302;7.744;2023-04-06T12:47:00;16.20;;;5.57;;
28431;SDS011;15664;51.302;7.744;2023-04-06T12:49:26;13.40;;;5.25;;
28431;SDS011;15664;51.302;7.744;2023-04-06T12:51:52;14.90;;;5.25;;
28431;SDS011;15664;51.302;7.744;2023-04-06T12:54:17;12.87;;;5.10;;
28431;SDS011;15664;51.302;7.744;2023-04-06T12:56:43;14.87;;;5.57;;
28431;SDS011;15664;51.302;7.744;2023-04-06T12:59:08;13.23;;;5.70;;
28431;SDS011;15664;51.302;7.744;2023-04-06T13:01:34;14.05;;;5.72;;
28431;SDS011;15664;51.302;7.744;2023-04-06T13:03:59;12.10;;;4.97;;
28431;SDS011;15664;51.302;7.744;2023-04-06T13:06:25;16.40;;;5.90;;
28431;SDS011;15664;51.302;7.744;2023-04-06T13:08:52;14.77;;;5.57;;
28431;SDS011;15664;51.302;7.744;2023-04-06T13:11:18;14.93;;;6.00;;
28431;SDS011;15664;51.302;7.744;2023-04-06T13:13:45;13.35;;;5.93;;
28431;SDS011;15664;51.302;7.744;2023-04-06T13:16:11;11.90;;;5.73;;
28431;SDS011;15664;51.302;7.744;2023-04-06T13:18:37;14.98;;;5.47;;
28431;SDS011;15664;51.302;7.744;2023-04-06T13:21:06;16.00;;;5.67;;
28431;SDS011;15664;51.302;7.744;2023-04-06T13:23:33;14.98;;;6.18;;
28431;SDS011;15664;51.302;7.744;2023-04-06T13:26:03;12.77;;;5.50;;
28431;SDS011;15664;51.302;7.744;2023-04-06T13:28:31;14.95;;;5.60;;
28431;SDS011;15664;51.302;7.744;2023-04-06T13:30:58;14.93;;;5.40;;
28431;SDS011;15664;51.302;7.744;2023-04-06T13:33:25;13.50;;;6.63;;
28431;SDS011;15664;51.302;7.744;2023-04-06T13:35:51;16.23;;;6.90;;
28431;SDS011;15664;51.302;7.744;2023-04-06T13:38:17;15.55;;;5.93;;
28431;SDS011;15664;51.302;7.744;2023-04-06T13:40:42;14.77;;;6.07;;
28431;SDS011;15664;51.302;7.744;2023-04-06T13:43:09;16.20;;;6.72;;
28431;SDS011;15664;51.302;7.744;2023-04-06T13:45:36;13.85;;;5.63;;
28431;SDS011;15664;51.302;7.744;2023-04-06T13:48:02;14.67;;;5.33;;
28431;SDS011;15664;51.302;7.744;2023-04-06T13:50:28;276.33;;;108.10;;
28431;SDS011;15664;51.302;7.744;2023-04-06T13:52:54;152.13;;;72.18;;
28431;SDS011;15664;51.302;7.744;2023-04-06T13:55:21;144.13;;;70.57;;
28431;SDS011;15664;51.302;7.744;2023-04-06T13:57:49;112.80;;;60.38;;
28431;SDS011;15664;51.302;7.744;2023-04-06T14:00:15;103.32;;;58.92;;
28431;SDS011;15664;51.302;7.744;2023-04-06T14:02:41;73.68;;;47.72;;
28431;SDS011;15664;51.302;7.744;2023-04-06T14:05:07;29.83;;;20.97;;
28431;SDS011;15664;51.302;7.744;2023-04-06T14:07:33;30.83;;;18.63;;
28431;SDS011;15664;51.302;7.744;2023-04-06T14:09:58;28.83;;;20.07;;
28431;SDS011;15664;51.302;7.744;2023-04-06T14:12:25;22.35;;;12.63;;
28431;SDS011;15664;51.302;7.744;2023-04-06T14:14:52;30.77;;;22.83;;
28431;SDS011;15664;51.302;7.744;2023-04-06T14:17:17;37.27;;;27.70;;
28431;SDS011;15664;51.302;7.744;2023-04-06T14:19:43;40.97;;;23.33;;
28431;SDS011;15664;51.302;7.744;2023-04-06T14:22:08;19.50;;;12.33;;
28431;SDS011;15664;51.302;7.744;2023-04-06T14:24:33;21.57;;;12.70;;
28431;SDS011;15664;51.302;7.744;2023-04-06T14:27:04;17.83;;;9.68;;
28431;SDS011;15664;51.302;7.744;2023-04-06T14:29:30;16.53;;;7.07;;
28431;SDS011;15664;51.302;7.744;2023-04-06T14:31:55;13.73;;;5.77;;
28431;SDS011;15664;51.302;7.744;2023-04-06T14:34:25;15.43;;;6.10;;
28431;SDS011;15664;51.302;7.744;2023-04-06T14:36:52;13.40;;;5.95;;
28431;SDS011;15664;51.302;7.744;2023-04-06T14:39:17;13.00;;;4.82;;
28431;SDS011;15664;51.302;7.744;2023-04-06T14:41:43;14.40;;;6.23;;